createdAt,value
2018-05-11T01:01:13.999Z,8.83
2018-05-11T01:03:41.494Z,8.50
2018-05-11T01:06:08.999Z,8.23
2018-05-11T01:08:36.504Z,10.60
2018-05-11T01:11:04.016Z,8.60
2018-05-11T01:13:31.505Z,8.57
2018-05-11T01:15:59.012Z,10.87
2018-05-11T01:18:27.270Z,7.93
2018-05-11T01:20:55.530Z,8.83
2018-05-11T01:23:23.752Z,10.67
2018-05-11T01:25:51.250Z,7.87
2018-05-11T01:28:18.757Z,9.80
2018-05-11T01:30:46.260Z,7.93
2018-05-11T01:33:13.764Z,10.40
2018-05-11T01:35:41.512Z,8.40
2018-05-11T01:38:08.993Z,7.80
2018-05-11T01:40:36.493Z,10.40
2018-05-11T01:43:03.965Z,7.70
2018-05-11T01:45:31.493Z,7.33
2018-05-11T01:47:59.026Z,9.67
2018-05-11T01:50:26.537Z,8.43
2018-05-11T01:52:54.031Z,7.67
2018-05-11T01:55:23.028Z,7.87
2018-05-11T01:57:50.710Z,10.60
2018-05-11T02:00:18.238Z,8.83
2018-05-11T02:02:46.104Z,9.40
2018-05-11T02:05:13.651Z,10.43
2018-05-11T02:07:41.437Z,8.07
2018-05-11T02:10:09.266Z,8.27
2018-05-11T02:12:37.165Z,8.97
2018-05-11T02:15:04.844Z,8.10
2018-05-11T02:17:32.513Z,8.00
2018-05-11T02:20:00.576Z,10.63
2018-05-11T02:22:28.072Z,8.70
2018-05-11T02:24:55.575Z,7.90
2018-05-11T02:27:23.841Z,8.37
2018-05-11T02:29:52.108Z,10.80
2018-05-11T02:32:20.377Z,8.30
2018-05-11T02:34:47.873Z,10.30
2018-05-11T02:37:15.396Z,8.57
2018-05-11T02:39:42.885Z,8.77
2018-05-11T02:42:10.384Z,8.37
2018-05-11T02:44:37.937Z,11.27
2018-05-11T02:47:05.439Z,8.50
2018-05-11T02:49:33.697Z,10.70
2018-05-11T02:52:01.310Z,9.00
2018-05-11T02:54:28.976Z,8.30
2018-05-11T02:56:56.506Z,9.10
2018-05-11T02:59:24.018Z,10.97
2018-05-11T03:01:51.511Z,9.40
2018-05-11T03:04:18.993Z,9.37
2018-05-11T03:06:46.485Z,8.87
2018-05-11T03:09:14.328Z,9.47
2018-05-11T03:11:42.063Z,11.30
2018-05-11T03:14:10.339Z,8.83
2018-05-11T03:16:38.914Z,9.13
2018-05-11T03:19:07.001Z,8.27
2018-05-11T03:21:34.529Z,11.37
2018-05-11T03:24:02.035Z,9.20
2018-05-11T03:26:29.845Z,8.17
2018-05-11T03:28:57.340Z,11.03
2018-05-11T03:31:24.973Z,9.00
2018-05-11T03:33:52.478Z,8.90
2018-05-11T03:36:19.961Z,9.27
2018-05-11T03:38:47.502Z,11.57
2018-05-11T03:41:15.445Z,8.97
2018-05-11T03:43:42.933Z,9.27
2018-05-11T03:46:10.426Z,11.37
2018-05-11T03:48:38.535Z,9.07
2018-05-11T03:51:06.183Z,9.20
2018-05-11T03:53:33.844Z,9.07
2018-05-11T03:56:01.926Z,12.43
2018-05-11T03:58:29.457Z,9.23
2018-05-11T04:00:57.058Z,9.00
2018-05-11T04:03:36.289Z,8.80
2018-05-11T04:09:05.142Z,8.80
2018-05-11T04:11:32.944Z,8.90
2018-05-11T04:14:00.427Z,10.00
2018-05-11T04:16:28.313Z,8.50
2018-05-11T04:18:55.808Z,9.90
2018-05-11T04:21:23.343Z,7.63
2018-05-11T04:23:51.066Z,8.57
2018-05-11T04:26:18.583Z,7.80
2018-05-11T04:28:46.071Z,7.83
2018-05-11T04:31:13.575Z,8.03
2018-05-11T04:33:41.080Z,7.40
2018-05-11T04:36:09.331Z,9.40
2018-05-11T04:38:36.836Z,7.30
2018-05-11T04:41:04.324Z,6.90
2018-05-11T04:43:31.827Z,6.50
2018-05-11T04:45:59.690Z,6.20
2018-05-11T04:48:27.319Z,8.30
2018-05-11T04:50:54.816Z,6.23
2018-05-11T04:53:22.328Z,7.23
2018-05-11T04:55:49.833Z,5.93
2018-05-11T04:58:18.420Z,5.80
2018-05-11T05:00:45.913Z,5.70
2018-05-11T05:03:14.129Z,6.07
2018-05-11T05:05:42.381Z,5.87
2018-05-11T05:08:09.877Z,5.67
2018-05-11T05:10:37.553Z,6.27
2018-05-11T05:13:05.127Z,5.47
2018-05-11T05:15:32.631Z,5.60
2018-05-11T05:18:00.127Z,7.20
2018-05-11T05:20:27.621Z,5.87
2018-05-11T05:22:55.136Z,7.93
2018-05-11T05:25:23.385Z,5.77
2018-05-11T05:27:50.889Z,6.00
2018-05-11T05:30:18.636Z,6.47
2018-05-11T05:32:46.141Z,5.60
2018-05-11T05:35:13.662Z,5.80
2018-05-11T05:37:41.193Z,7.20
2018-05-11T05:40:08.714Z,5.53
2018-05-11T05:42:36.226Z,5.77
2018-05-11T05:45:03.741Z,6.20
2018-05-11T05:47:31.238Z,5.87
2018-05-11T05:49:58.735Z,7.50
2018-05-11T05:52:26.663Z,6.20
2018-05-11T05:54:54.935Z,5.83
2018-05-11T05:57:22.462Z,5.83
2018-05-11T05:59:50.502Z,7.20
2018-05-11T06:02:17.981Z,6.27
2018-05-11T06:04:45.469Z,7.30
2018-05-11T06:07:13.734Z,6.60
2018-05-11T06:09:41.217Z,6.57
2018-05-11T06:12:09.809Z,6.93
2018-05-11T06:14:37.494Z,6.13
2018-05-11T06:17:05.149Z,6.53
2018-05-11T06:19:32.792Z,7.60
2018-05-11T06:22:00.334Z,8.03
2018-05-11T06:24:28.610Z,7.47
2018-05-11T06:26:56.108Z,8.17
2018-05-11T06:29:23.764Z,8.53
2018-05-11T06:31:51.280Z,7.93
2018-05-11T06:34:19.503Z,7.70
2018-05-11T06:36:47.080Z,8.33
2018-05-11T06:39:14.598Z,8.40
2018-05-11T06:41:42.486Z,7.80
2018-05-11T06:44:09.984Z,11.03
2018-05-11T06:46:37.511Z,10.33
2018-05-11T06:49:05.045Z,10.97
2018-05-11T06:51:33.544Z,11.43
2018-05-11T06:54:01.177Z,12.93
2018-05-11T06:56:28.668Z,11.13
2018-05-11T06:58:56.719Z,10.30
2018-05-11T07:01:24.788Z,10.40
2018-05-11T07:03:52.701Z,9.73
2018-05-11T07:06:20.212Z,10.63
2018-05-11T07:08:47.811Z,11.33
2018-05-11T07:11:15.688Z,10.23
2018-05-11T07:13:43.788Z,13.10
2018-05-11T07:16:12.167Z,10.83
2018-05-11T07:18:39.848Z,10.23
2018-05-11T07:21:08.291Z,10.07
2018-05-11T07:23:36.699Z,10.57
2018-05-11T07:26:04.240Z,11.87
2018-05-11T07:28:31.777Z,15.23
2018-05-11T07:30:59.342Z,13.33
2018-05-11T07:33:26.834Z,13.93
2018-05-11T07:35:54.346Z,14.30
2018-05-11T07:38:22.314Z,13.87
2018-05-11T07:40:49.807Z,12.80
2018-05-11T07:43:18.172Z,13.00
2018-05-11T07:45:45.613Z,12.50
2018-05-11T07:48:13.907Z,13.20
2018-05-11T07:50:41.494Z,12.37
2018-05-11T07:53:09.046Z,13.63
2018-05-11T07:55:37.432Z,12.90
2018-05-11T07:58:05.148Z,15.90
2018-05-11T08:00:32.678Z,15.20
2018-05-11T08:03:00.481Z,16.23
2018-05-11T08:05:27.981Z,17.47
2018-05-11T08:07:55.537Z,17.20
2018-05-11T08:10:23.563Z,16.57
2018-05-11T08:12:51.067Z,16.00
2018-05-11T08:15:18.990Z,16.13
2018-05-11T08:17:46.688Z,15.97
2018-05-11T08:20:14.207Z,17.47
